createdAt,value
2023-03-03T00:01:11.434Z,305.40
2023-03-03T00:04:33.181Z,280.80
2023-03-03T00:07:12.843Z,283.00
2023-03-03T00:09:45.325Z,303.90
2023-03-03T00:12:31.488Z,326.90
2023-03-03T00:19:23.343Z,302.80
2023-03-03T00:26:56.725Z,298.00
2023-03-03T00:52:01.889Z,262.80
2023-03-03T00:54:34.261Z,256.10
2023-03-03T00:57:06.752Z,269.20
2023-03-03T00:59:46.107Z,251.80
2023-03-03T01:02:18.789Z,242.10
2023-03-03T01:04:58.263Z,269.70
2023-03-03T01:07:30.718Z,255.30
2023-03-03T01:10:11.826Z,265.00
2023-03-03T01:12:58.587Z,273.90
2023-03-03T01:15:45.304Z,265.50
2023-03-03T01:22:50.007Z,280.40
2023-03-03T01:25:22.540Z,292.70
2023-03-03T01:32:27.374Z,273.40
2023-03-03T01:42:30.836Z,209.90
2023-03-03T01:50:34.625Z,243.30
2023-03-03T01:57:40.613Z,250.10
2023-03-03T02:09:28.284Z,178.90
2023-03-03T02:16:12.514Z,160.60
2023-03-03T02:18:45.509Z,165.30
2023-03-03T02:30:52.743Z,160.00
2023-03-03T02:33:46.782Z,162.30
2023-03-03T02:37:10.899Z,157.40
2023-03-03T02:40:48.749Z,157.50
2023-03-03T02:52:22.157Z,223.80
2023-03-03T02:59:45.120Z,127.20
2023-03-03T03:02:47.101Z,165.20
2023-03-03T03:07:11.913Z,133.60
2023-03-03T03:09:55.017Z,141.80
2023-03-03T03:12:27.647Z,113.20
2023-03-03T03:15:10.132Z,122.20
2023-03-03T03:18:32.246Z,122.30
2023-03-03T03:21:51.869Z,113.80
2023-03-03T03:29:57.458Z,157.50
2023-03-03T03:32:34.814Z,108.70
2023-03-03T03:35:08.440Z,107.20
2023-03-03T03:42:10.465Z,107.60
2023-03-03T03:44:43.815Z,108.40
2023-03-03T03:51:52.314Z,162.30
2023-03-03T03:55:08.939Z,124.20
2023-03-03T04:02:28.464Z,118.50
2023-03-03T04:09:37.326Z,122.90
2023-03-03T04:17:01.323Z,131.80
2023-03-03T04:19:33.939Z,131.90
2023-03-03T04:22:48.876Z,120.40
2023-03-03T04:25:30.170Z,155.80
2023-03-03T04:28:05.498Z,152.80
2023-03-03T04:31:34.309Z,157.60
2023-03-03T04:34:07.407Z,164.30
2023-03-03T04:36:47.295Z,158.30
2023-03-03T04:44:36.078Z,147.50
2023-03-03T04:47:15.245Z,145.20
2023-03-03T04:50:16.641Z,163.30
2023-03-03T04:58:27.274Z,144.50
2023-03-03T05:01:25.222Z,140.30
2023-03-03T05:04:09.741Z,123.10
2023-03-03T05:11:34.880Z,110.70
2023-03-03T05:15:12.647Z,90.20
2023-03-03T05:17:53.604Z,132.20
2023-03-03T05:21:14.959Z,114.80
2023-03-03T05:23:49.883Z,113.60
2023-03-03T05:26:22.376Z,98.10
2023-03-03T05:28:57.921Z,93.40
2023-03-03T05:36:32.728Z,112.80
2023-03-03T05:39:05.520Z,119.30
2023-03-03T05:41:44.355Z,117.30
2023-03-03T05:49:17.738Z,152.80
2023-03-03T05:51:56.427Z,123.10
2023-03-03T05:54:29.000Z,151.70
2023-03-03T05:57:38.241Z,161.60
2023-03-03T06:00:36.787Z,173.10
2023-03-03T06:04:01.113Z,131.60
2023-03-03T06:07:24.981Z,119.60
2023-03-03T06:10:56.207Z,138.40
2023-03-03T06:13:35.288Z,145.60
2023-03-03T06:16:41.701Z,146.40
2023-03-03T06:19:17.196Z,139.00
2023-03-03T06:22:42.395Z,132.60
2023-03-03T06:29:42.318Z,149.30
2023-03-03T06:32:15.471Z,168.20
2023-03-03T06:38:59.729Z,107.40
2023-03-03T06:54:31.239Z,131.50
2023-03-03T06:57:35.273Z,135.20
2023-03-03T07:00:34.563Z,104.60
2023-03-03T07:07:58.953Z,82.30
2023-03-03T07:10:32.495Z,84.80
2023-03-03T07:13:19.267Z,81.80
2023-03-03T07:15:53.692Z,84.50
2023-03-03T07:19:19.112Z,83.80
2023-03-03T07:21:54.148Z,84.90
2023-03-03T07:37:44.817Z,102.20
2023-03-03T07:41:40.934Z,81.00
2023-03-03T07:48:41.925Z,82.70
2023-03-03T07:51:45.466Z,87.90
2023-03-03T07:58:57.363Z,76.60
2023-03-03T08:11:20.633Z,63.30
2023-03-03T08:13:52.874Z,71.20
2023-03-03T08:17:05.653Z,69.50
2023-03-03T08:19:37.992Z,76.90
2023-03-03T08:22:57.671Z,73.60
2023-03-03T08:30:34.493Z,65.60
2023-03-03T08:33:30.656Z,155.00
2023-03-03T08:36:03.232Z,138.80
2023-03-03T08:38:46.682Z,88.10
2023-03-03T08:41:19.391Z,79.20
2023-03-03T08:43:52.144Z,63.20
2023-03-03T08:46:50.812Z,79.50
2023-03-03T08:49:54.552Z,76.70
2023-03-03T08:52:35.374Z,119.60
2023-03-03T08:55:37.662Z,109.40
2023-03-03T08:58:10.192Z,87.40
2023-03-03T09:00:42.660Z,125.50
2023-03-03T09:07:22.152Z,127.10
2023-03-03T09:14:15.263Z,72.30
2023-03-03T09:25:42.347Z,70.90
2023-03-03T09:32:50.122Z,82.70
2023-03-03T09:35:42.504Z,75.10
2023-03-03T09:52:00.777Z,72.30
2023-03-03T10:03:52.813Z,68.10
2023-03-03T10:07:37.554Z,67.90
2023-03-03T10:11:08.952Z,71.70
2023-03-03T10:31:05.552Z,154.40
2023-03-03T10:42:17.779Z,60.30
2023-03-03T11:02:42.801Z,75.40
2023-03-03T11:09:55.310Z,83.40
2023-03-03T11:12:41.367Z,72.80
2023-03-03T11:15:57.609Z,52.20
2023-03-03T11:29:04.827Z,35.10
2023-03-03T11:49:29.459Z,48.80
2023-03-03T11:56:17.593Z,38.50
2023-03-03T12:16:56.656Z,53.10
2023-03-03T12:39:45.884Z,75.60
2023-03-03T13:19:16.158Z,56.40
2023-03-03T13:26:24.795Z,56.00
2023-03-03T13:34:07.104Z,42.10
2023-03-03T13:36:54.143Z,41.70
2023-03-03T13:48:53.115Z,38.40
2023-03-03T13:51:45.431Z,41.70
2023-03-03T13:59:19.081Z,36.50
2023-03-03T14:23:20.187Z,51.40
2023-03-03T14:26:47.570Z,40.40
2023-03-03T14:29:34.067Z,40.30
2023-03-03T14:32:43.099Z,48.30
2023-03-03T14:35:22.119Z,39.10
2023-03-03T14:38:02.338Z,213.20
2023-03-03T14:40:44.038Z,341.80
2023-03-03T14:43:30.685Z,335.90
2023-03-03T14:46:42.236Z,434.40
2023-03-03T14:49:32.761Z,451.10
2023-03-03T14:54:47.477Z,279.20
2023-03-03T14:57:21.365Z,105.00
2023-03-03T15:00:03.186Z,234.70
2023-03-03T15:02:38.931Z,464.20
2023-03-03T15:05:24.838Z,179.30
2023-03-03T15:07:59.347Z,143.00
2023-03-03T15:14:43.996Z,69.10
2023-03-03T15:28:51.792Z,127.00
2023-03-03T15:32:07.628Z,77.90
2023-03-03T15:34:45.878Z,78.20
2023-03-03T15:37:43.695Z,199.60
2023-03-03T15:40:27.252Z,280.50
2023-03-03T15:43:10.677Z,274.90
2023-03-03T15:45:52.745Z,171.30
2023-03-03T15:48:47.236Z,275.00
2023-03-03T15:51:32.533Z,260.90
2023-03-03T15:54:29.774Z,324.10
2023-03-03T15:57:06.294Z,220.80
2023-03-03T16:00:04.157Z,350.10
2023-03-03T16:02:52.026Z,377.50
2023-03-03T16:05:46.000Z,198.20
2023-03-03T16:08:24.526Z,325.50
2023-03-03T16:19:34.635Z,130.00
2023-03-03T16:22:42.243Z,243.00
2023-03-03T16:25:29.471Z,152.70
2023-03-03T16:28:07.659Z,189.00
2023-03-03T16:30:48.284Z,208.80
2023-03-03T16:36:11.335Z,295.40
2023-03-03T16:38:46.780Z,257.60
2023-03-03T16:41:24.914Z,179.90
2023-03-03T16:44:13.642Z,220.80
2023-03-03T16:46:52.194Z,179.90
2023-03-03T16:49:30.835Z,170.30
2023-03-03T16:52:09.318Z,209.40
2023-03-03T16:54:54.536Z,200.90
2023-03-03T16:57:35.715Z,183.10
2023-03-03T17:00:13.983Z,106.50
2023-03-03T17:03:10.560Z,52.20
2023-03-03T17:05:51.460Z,60.40
2023-03-03T17:08:42.946Z,111.30
2023-03-03T17:11:35.080Z,85.50
2023-03-03T17:14:25.362Z,97.90
2023-03-03T17:17:01.581Z,67.80
2023-03-03T17:19:58.674Z,73.50
2023-03-03T17:22:42.739Z,66.60
2023-03-03T17:25:23.072Z,52.90
2023-03-03T17:28:09.767Z,223.80
2023-03-03T17:30:49.837Z,162.00
2023-03-03T17:33:55.082Z,147.60
2023-03-03T17:36:45.594Z,122.40
2023-03-03T17:39:42.571Z,102.50
2023-03-03T17:42:24.633Z,79.10
2023-03-03T17:45:05.884Z,73.90
2023-03-03T17:47:49.033Z,54.20
2023-03-03T17:50:53.229Z,58.20
2023-03-03T17:53:44.553Z,67.10
2023-03-03T17:56:22.663Z,71.30
2023-03-03T17:59:27.457Z,80.10
2023-03-03T18:02:30.512Z,75.40
2023-03-03T18:05:30.108Z,70.00
2023-03-03T18:08:20.934Z,69.40
2023-03-03T18:11:24.779Z,96.80
2023-03-03T18:14:37.054Z,136.90
2023-03-03T18:17:42.496Z,77.40
2023-03-03T18:20:43.116Z,77.90
2023-03-03T18:26:37.223Z,56.30
2023-03-03T18:29:21.857Z,70.70
2023-03-03T18:32:06.267Z,84.60
2023-03-03T18:34:41.224Z,111.20
2023-03-03T18:37:40.486Z,146.60
2023-03-03T18:40:35.912Z,138.90
2023-03-03T18:43:49.544Z,104.70
2023-03-03T18:46:54.836Z,91.50
2023-03-03T18:50:06.759Z,59.40
2023-03-03T18:52:40.356Z,71.60
2023-03-03T18:55:27.841Z,79.90
2023-03-03T18:58:34.102Z,86.40
2023-03-03T19:01:43.026Z,75.20
2023-03-03T19:04:27.043Z,77.10
2023-03-03T19:07:27.686Z,83.90
2023-03-03T19:12:57.915Z,108.20
2023-03-03T19:18:23.894Z,817.20
2023-03-03T19:21:11.830Z,530.20
2023-03-03T19:24:01.005Z,562.30
2023-03-03T19:27:11.735Z,1133.80
2023-03-03T19:32:47.491Z,636.20
2023-03-03T19:35:29.877Z,288.40
2023-03-03T19:38:21.312Z,639.40
2023-03-03T19:41:27.883Z,188.40
2023-03-03T19:44:08.981Z,132.20
2023-03-03T19:46:56.432Z,100.40
2023-03-03T19:49:56.056Z,135.60
2023-03-03T19:52:44.270Z,129.80
2023-03-03T19:55:34.112Z,97.60
2023-03-03T19:58:29.475Z,109.20
2023-03-03T20:01:15.815Z,109.90
2023-03-03T20:07:58.576Z,107.40
2023-03-03T20:33:54.028Z,84.30
2023-03-03T20:50:30.551Z,106.30
2023-03-03T20:53:45.221Z,86.00
2023-03-03T21:12:35.653Z,73.70
2023-03-03T21:24:19.858Z,66.70
2023-03-03T21:36:02.291Z,62.00
2023-03-03T21:47:22.943Z,67.00
2023-03-03T21:50:46.666Z,59.50
2023-03-03T21:58:57.156Z,56.30
2023-03-03T22:01:29.519Z,59.80
2023-03-03T22:04:01.937Z,65.00
2023-03-03T22:07:28.743Z,63.00
2023-03-03T22:10:03.319Z,73.40
2023-03-03T22:18:05.456Z,75.80
2023-03-03T22:21:33.111Z,71.80
2023-03-03T22:28:55.775Z,67.70
2023-03-03T22:32:12.350Z,64.60
2023-03-03T22:35:18.583Z,68.70
2023-03-03T22:37:51.040Z,65.00
2023-03-03T22:40:23.474Z,69.00
2023-03-03T22:43:02.669Z,70.50
2023-03-03T22:45:35.120Z,70.10
2023-03-03T22:48:14.089Z,78.10
2023-03-03T22:50:47.604Z,74.10
2023-03-03T22:53:47.023Z,67.00
2023-03-03T22:56:19.350Z,69.70
2023-03-03T23:09:01.333Z,58.30
2023-03-03T23:15:24.953Z,77.50
2023-03-03T23:18:23.555Z,62.90
2023-03-03T23:21:02.791Z,66.10
2023-03-03T23:23:35.303Z,57.20
2023-03-03T23:26:43.784Z,58.20
2023-03-03T23:29:59.112Z,64.80
2023-03-03T23:33:03.744Z,69.40
2023-03-03T23:44:58.758Z,82.60
2023-03-03T23:47:31.659Z,126.40
2023-03-03T23:50:13.955Z,89.50
2023-03-03T23:53:36.638Z,96.30
2023-03-03T23:56:20.243Z,82.00
2023-03-03T23:59:18.691Z,82.70
